createdAt,value
2023-01-31T00:00:59.070Z,9.00
2023-01-31T00:01:59.108Z,8.90
2023-01-31T00:02:59.053Z,8.30
2023-01-31T00:03:59.072Z,9.70
2023-01-31T00:04:59.041Z,9.10
2023-01-31T00:05:59.054Z,10.20
2023-01-31T00:06:59.008Z,8.60
2023-01-31T00:07:59.006Z,8.90
2023-01-31T00:08:59.003Z,8.20
2023-01-31T00:09:58.982Z,8.40
2023-01-31T00:10:58.974Z,8.60
2023-01-31T00:11:58.962Z,7.40
2023-01-31T00:12:58.967Z,7.40
2023-01-31T00:13:58.966Z,7.40
2023-01-31T00:14:58.925Z,8.00
2023-01-31T00:15:58.937Z,6.90
2023-01-31T00:16:58.905Z,7.50
2023-01-31T00:17:58.903Z,7.70
2023-01-31T00:18:58.912Z,7.20
2023-01-31T00:19:58.880Z,7.20
2023-01-31T00:20:58.865Z,7.40
2023-01-31T00:21:58.859Z,7.30
2023-01-31T00:22:58.839Z,7.70
2023-01-31T00:23:58.875Z,7.20
2023-01-31T00:24:58.831Z,7.20
2023-01-31T00:25:58.818Z,8.10
2023-01-31T00:26:58.797Z,7.80
2023-01-31T00:27:58.798Z,8.00
2023-01-31T00:28:58.809Z,7.70
2023-01-31T00:29:58.789Z,8.90
2023-01-31T00:30:58.781Z,7.90
2023-01-31T00:31:58.907Z,8.50
2023-01-31T00:32:58.741Z,8.70
2023-01-31T00:33:58.777Z,8.90
2023-01-31T00:34:58.744Z,10.00
2023-01-31T00:35:58.722Z,9.50
2023-01-31T00:36:58.709Z,8.90
2023-01-31T00:37:58.697Z,9.60
2023-01-31T00:38:58.702Z,10.30
2023-01-31T00:39:58.680Z,10.40
2023-01-31T00:40:58.675Z,9.60
2023-01-31T00:41:58.681Z,10.00
2023-01-31T00:42:58.642Z,9.80
2023-01-31T00:43:58.657Z,9.60
2023-01-31T00:44:58.627Z,10.60
2023-01-31T00:45:58.612Z,9.90
2023-01-31T00:46:58.625Z,10.00
2023-01-31T00:47:58.594Z,10.60
2023-01-31T00:48:58.598Z,9.30
2023-01-31T00:49:58.602Z,10.10
2023-01-31T00:50:58.569Z,10.10
2023-01-31T00:51:58.556Z,10.80
2023-01-31T00:52:58.547Z,9.70
2023-01-31T00:53:58.586Z,10.40
2023-01-31T00:54:58.523Z,10.20
2023-01-31T00:55:58.514Z,10.30
2023-01-31T00:56:58.501Z,10.50
2023-01-31T00:57:58.509Z,10.10
2023-01-31T00:58:58.517Z,9.80
2023-01-31T00:59:58.477Z,10.40
2023-01-31T01:00:58.502Z,10.60
2023-01-31T01:01:58.461Z,11.10
2023-01-31T01:02:58.441Z,10.10
2023-01-31T01:03:58.437Z,10.20
2023-01-31T01:04:58.440Z,10.50
2023-01-31T01:05:58.408Z,11.00
2023-01-31T01:06:58.400Z,9.60
2023-01-31T01:07:58.412Z,11.00
2023-01-31T01:08:58.380Z,10.20
2023-01-31T01:09:58.390Z,10.40
2023-01-31T01:10:58.383Z,11.10
2023-01-31T01:11:58.353Z,10.70
2023-01-31T01:12:58.335Z,10.90
2023-01-31T01:13:58.340Z,11.30
2023-01-31T01:14:58.331Z,9.90
2023-01-31T01:15:58.342Z,9.80
2023-01-31T01:16:58.308Z,9.80
2023-01-31T01:17:58.294Z,11.00
2023-01-31T01:18:58.273Z,10.90
2023-01-31T01:19:58.297Z,9.80
2023-01-31T01:20:58.263Z,10.40
2023-01-31T01:21:58.266Z,10.20
2023-01-31T01:22:58.244Z,10.50
2023-01-31T01:23:58.242Z,10.80
2023-01-31T01:24:58.233Z,10.30
2023-01-31T01:25:58.206Z,10.20
2023-01-31T01:26:58.195Z,9.40
2023-01-31T01:27:58.194Z,10.50
2023-01-31T01:28:58.180Z,10.80
2023-01-31T01:29:58.185Z,9.90
2023-01-31T01:30:58.186Z,10.90
2023-01-31T01:31:58.235Z,9.30
2023-01-31T01:32:58.136Z,10.10
2023-01-31T01:33:58.127Z,11.30
2023-01-31T01:34:58.137Z,9.90
2023-01-31T01:35:58.109Z,10.60
2023-01-31T01:36:58.098Z,10.00
2023-01-31T01:37:58.093Z,11.10
2023-01-31T01:38:58.081Z,9.60
2023-01-31T01:39:58.096Z,10.10
2023-01-31T01:40:58.051Z,10.00
2023-01-31T01:41:58.049Z,9.20
2023-01-31T01:42:58.030Z,10.60
2023-01-31T01:43:58.030Z,9.70
2023-01-31T01:44:58.029Z,11.00
2023-01-31T01:45:58.046Z,9.60
2023-01-31T01:46:57.990Z,10.20
2023-01-31T01:47:57.988Z,9.90
2023-01-31T01:48:57.973Z,9.10
2023-01-31T01:49:57.988Z,10.60
2023-01-31T01:50:57.952Z,10.60
2023-01-31T01:51:57.961Z,9.40
2023-01-31T01:52:57.953Z,9.80
2023-01-31T01:53:57.942Z,10.50
2023-01-31T01:54:57.931Z,8.90
2023-01-31T01:55:57.972Z,10.30
2023-01-31T01:56:57.894Z,9.60
2023-01-31T01:57:57.892Z,10.20
2023-01-31T01:58:57.873Z,9.70
2023-01-31T01:59:57.886Z,9.90
2023-01-31T02:00:57.911Z,10.20
2023-01-31T02:01:57.875Z,9.10
2023-01-31T02:02:57.849Z,10.50
2023-01-31T02:03:57.837Z,9.60
2023-01-31T02:04:57.826Z,8.60
2023-01-31T02:05:57.806Z,9.10
2023-01-31T02:06:57.793Z,9.90
2023-01-31T02:07:57.794Z,9.60
2023-01-31T02:08:57.817Z,9.60
2023-01-31T02:09:57.789Z,9.90
2023-01-31T02:10:57.757Z,10.20
2023-01-31T02:11:57.760Z,9.50
2023-01-31T02:12:57.728Z,10.10
2023-01-31T02:13:57.729Z,9.60
2023-01-31T02:14:57.737Z,9.30
2023-01-31T02:15:57.709Z,9.10
2023-01-31T02:16:57.689Z,10.00
2023-01-31T02:17:57.682Z,8.90
2023-01-31T02:18:57.674Z,8.70
2023-01-31T02:19:57.681Z,10.00
2023-01-31T02:20:57.649Z,10.00
2023-01-31T02:21:57.651Z,9.10
2023-01-31T02:22:57.633Z,10.30
2023-01-31T02:23:57.626Z,8.70
2023-01-31T02:24:57.633Z,9.60
2023-01-31T02:25:57.601Z,9.60
2023-01-31T02:26:57.603Z,9.70
2023-01-31T02:27:57.582Z,9.60
2023-01-31T02:28:57.573Z,9.60
2023-01-31T02:29:57.582Z,9.70
2023-01-31T02:30:57.568Z,9.70
2023-01-31T02:31:57.555Z,9.10
2023-01-31T02:32:57.536Z,8.70
2023-01-31T02:33:57.528Z,8.40
2023-01-31T02:34:57.524Z,9.40
2023-01-31T02:35:57.512Z,7.40
2023-01-31T02:36:57.489Z,8.20
2023-01-31T02:37:57.483Z,9.30
2023-01-31T02:38:57.465Z,8.50
2023-01-31T02:39:57.487Z,8.90
2023-01-31T02:40:57.447Z,8.20
2023-01-31T02:41:57.455Z,9.10
2023-01-31T02:42:57.437Z,8.00
2023-01-31T02:43:57.434Z,8.70
2023-01-31T02:44:57.423Z,9.20
2023-01-31T02:45:57.440Z,8.50
2023-01-31T02:46:57.379Z,8.60
2023-01-31T02:47:57.383Z,9.40
2023-01-31T02:48:57.388Z,9.00
2023-01-31T02:49:57.379Z,8.60
2023-01-31T02:50:57.369Z,8.20
2023-01-31T02:51:57.343Z,8.60
2023-01-31T02:52:57.330Z,9.30
2023-01-31T02:53:57.320Z,8.60
2023-01-31T02:54:57.322Z,8.40
2023-01-31T02:55:57.308Z,8.50
2023-01-31T02:56:57.282Z,8.80
2023-01-31T02:57:57.287Z,9.20
2023-01-31T02:58:57.263Z,9.40
2023-01-31T02:59:57.285Z,8.70
2023-01-31T03:00:57.299Z,8.20
2023-01-31T03:01:57.240Z,8.60
2023-01-31T03:02:57.223Z,9.50
2023-01-31T03:03:57.224Z,8.80
2023-01-31T03:04:57.232Z,8.50
2023-01-31T03:05:57.202Z,9.00
2023-01-31T03:06:57.183Z,8.70
2023-01-31T03:07:57.178Z,9.20
2023-01-31T03:08:57.177Z,9.20
2023-01-31T03:09:57.203Z,8.90
2023-01-31T03:10:57.149Z,10.00
2023-01-31T03:11:57.135Z,9.40
2023-01-31T03:12:57.136Z,8.60
2023-01-31T03:13:57.117Z,9.10
2023-01-31T03:14:57.126Z,9.50
2023-01-31T03:15:57.106Z,8.90
2023-01-31T03:16:57.130Z,9.90
2023-01-31T03:17:57.109Z,8.60
2023-01-31T03:18:57.059Z,9.90
2023-01-31T03:19:57.077Z,9.30
2023-01-31T03:20:57.052Z,9.10
2023-01-31T03:21:57.039Z,8.30
2023-01-31T03:22:57.027Z,8.90
2023-01-31T03:23:57.023Z,9.30
2023-01-31T03:24:57.041Z,9.70
2023-01-31T03:25:56.999Z,9.20
2023-01-31T03:26:56.981Z,8.20
2023-01-31T03:27:56.986Z,8.80
2023-01-31T03:28:56.961Z,9.70
2023-01-31T03:29:56.982Z,8.80
2023-01-31T03:30:57.003Z,8.90
2023-01-31T03:31:56.988Z,9.10
2023-01-31T03:32:56.925Z,9.20
2023-01-31T03:33:56.927Z,8.50
2023-01-31T03:34:56.932Z,9.50
2023-01-31T03:35:56.901Z,8.30
2023-01-31T03:36:56.881Z,9.40
2023-01-31T03:37:56.885Z,9.70
2023-01-31T03:38:56.864Z,8.50
2023-01-31T03:39:56.880Z,8.70
2023-01-31T03:40:56.852Z,7.90
2023-01-31T03:41:56.849Z,8.80
2023-01-31T03:42:56.825Z,10.20
2023-01-31T03:43:56.825Z,9.10
2023-01-31T03:44:56.853Z,9.10
2023-01-31T03:45:56.879Z,8.60
2023-01-31T03:46:56.784Z,8.70
2023-01-31T03:47:56.774Z,8.50
2023-01-31T03:48:56.756Z,9.00
2023-01-31T03:49:56.774Z,9.30
2023-01-31T03:50:56.739Z,8.20
2023-01-31T03:51:56.735Z,9.60
2023-01-31T03:52:56.728Z,8.60
2023-01-31T03:53:56.708Z,8.90
2023-01-31T03:54:56.717Z,8.60
2023-01-31T03:55:56.689Z,9.00
2023-01-31T03:56:56.686Z,9.20
2023-01-31T03:57:56.673Z,8.50
2023-01-31T03:58:56.666Z,9.00
2023-01-31T03:59:56.669Z,9.20
2023-01-31T04:00:56.641Z,8.50
2023-01-31T04:01:56.679Z,9.20
2023-01-31T04:02:56.663Z,9.10
2023-01-31T04:03:56.612Z,8.30
2023-01-31T04:04:56.629Z,8.80
2023-01-31T04:05:56.601Z,9.10
2023-01-31T04:06:56.590Z,9.00
2023-01-31T04:07:56.572Z,8.80
2023-01-31T04:08:56.572Z,8.00
2023-01-31T04:09:56.659Z,8.20
2023-01-31T04:10:56.542Z,9.10
2023-01-31T04:11:56.531Z,9.70
2023-01-31T04:12:56.524Z,8.90
2023-01-31T04:13:56.510Z,9.40
2023-01-31T04:14:56.523Z,9.10
2023-01-31T04:15:56.523Z,8.60
2023-01-31T04:16:56.491Z,8.70
2023-01-31T04:17:56.467Z,9.40
2023-01-31T04:18:56.473Z,9.70
2023-01-31T04:19:56.465Z,9.50
2023-01-31T04:20:56.448Z,9.00
2023-01-31T04:21:56.425Z,8.80
2023-01-31T04:22:56.426Z,9.30
2023-01-31T04:23:56.413Z,9.20
2023-01-31T04:24:56.440Z,8.30
2023-01-31T04:25:56.388Z,8.30
2023-01-31T04:26:56.378Z,8.30
2023-01-31T04:27:56.385Z,9.00
2023-01-31T04:28:56.367Z,9.50
2023-01-31T04:29:56.355Z,8.60
2023-01-31T04:30:56.397Z,8.40
2023-01-31T04:31:56.425Z,8.10
2023-01-31T04:32:56.321Z,8.50
2023-01-31T04:33:56.306Z,8.60
2023-01-31T04:34:56.299Z,9.00
2023-01-31T04:35:56.311Z,9.10
2023-01-31T04:36:56.281Z,9.40
2023-01-31T04:37:56.271Z,8.10
2023-01-31T04:38:56.273Z,8.40
2023-01-31T04:39:56.249Z,8.80
2023-01-31T04:40:56.268Z,9.20
2023-01-31T04:41:56.221Z,8.40
2023-01-31T04:42:56.222Z,8.70
2023-01-31T04:43:56.201Z,8.70
2023-01-31T04:44:56.203Z,7.90
2023-01-31T04:45:56.202Z,9.10
2023-01-31T04:46:56.231Z,9.50
2023-01-31T04:47:56.183Z,10.60
2023-01-31T04:48:56.166Z,9.10
2023-01-31T04:49:56.154Z,8.50
2023-01-31T04:50:56.158Z,8.70
2023-01-31T04:51:56.124Z,8.20
2023-01-31T04:52:56.122Z,8.20
2023-01-31T04:53:56.106Z,8.00
2023-01-31T04:54:56.138Z,8.40
2023-01-31T04:55:56.110Z,9.00
2023-01-31T04:56:56.076Z,8.20
2023-01-31T04:57:56.068Z,7.80
2023-01-31T04:58:56.063Z,8.70
2023-01-31T04:59:56.048Z,8.30
2023-01-31T05:00:56.114Z,9.30
2023-01-31T05:01:56.025Z,8.60
2023-01-31T05:02:56.020Z,7.70
2023-01-31T05:03:56.012Z,8.30
2023-01-31T05:04:55.999Z,9.20
2023-01-31T05:05:56.020Z,8.90
2023-01-31T05:06:55.974Z,8.80
2023-01-31T05:07:55.960Z,8.50
2023-01-31T05:08:55.949Z,9.30
2023-01-31T05:09:55.957Z,8.00
2023-01-31T05:10:55.953Z,8.30
2023-01-31T05:11:55.921Z,8.80
2023-01-31T05:12:55.922Z,8.70
2023-01-31T05:13:55.903Z,8.20
2023-01-31T05:14:55.894Z,8.00
2023-01-31T05:15:55.925Z,8.40
2023-01-31T05:16:55.881Z,7.90
2023-01-31T05:17:55.868Z,8.30
2023-01-31T05:18:55.863Z,9.80
2023-01-31T05:19:55.846Z,8.10
2023-01-31T05:20:55.856Z,8.20
2023-01-31T05:21:55.838Z,8.70
2023-01-31T05:22:55.824Z,9.10
2023-01-31T05:23:55.803Z,7.70
2023-01-31T05:24:57.666Z,8.40
2023-01-31T05:25:55.801Z,8.60
2023-01-31T05:26:55.785Z,9.20
2023-01-31T05:27:55.765Z,9.40
2023-01-31T05:28:55.755Z,9.80
2023-01-31T05:29:55.757Z,9.10
2023-01-31T05:30:55.792Z,9.20
2023-01-31T05:31:55.732Z,9.40
2023-01-31T05:32:55.721Z,10.50
2023-01-31T05:33:55.709Z,16.00
2023-01-31T05:34:55.697Z,13.50
2023-01-31T05:35:55.699Z,10.60
2023-01-31T05:36:55.686Z,9.50
2023-01-31T05:37:55.660Z,9.80
2023-01-31T05:38:55.660Z,9.90
2023-01-31T05:39:56.950Z,8.70
2023-01-31T05:40:55.652Z,8.50
2023-01-31T05:41:55.620Z,9.10
2023-01-31T05:42:55.629Z,8.90
2023-01-31T05:43:55.610Z,9.10
2023-01-31T05:44:55.611Z,9.20
2023-01-31T05:45:55.709Z,7.70
2023-01-31T05:46:55.575Z,7.90
2023-01-31T05:47:55.565Z,7.90
2023-01-31T05:48:55.564Z,7.30
2023-01-31T05:49:55.541Z,7.90
2023-01-31T05:50:55.553Z,7.40
2023-01-31T05:51:55.520Z,7.10
2023-01-31T05:52:55.512Z,6.90
2023-01-31T05:53:55.494Z,6.60
2023-01-31T05:54:55.496Z,7.10
2023-01-31T05:55:55.504Z,8.50
2023-01-31T05:56:55.472Z,8.10
2023-01-31T05:57:55.464Z,9.20
2023-01-31T05:58:55.460Z,9.20
2023-01-31T05:59:55.434Z,8.60
2023-01-31T06:00:55.455Z,9.60
2023-01-31T06:01:55.464Z,9.80
2023-01-31T06:02:55.439Z,9.20
2023-01-31T06:03:55.397Z,8.20
2023-01-31T06:04:55.403Z,8.20
2023-01-31T06:05:55.395Z,7.80
2023-01-31T06:06:55.381Z,9.20
2023-01-31T06:07:55.368Z,8.80
2023-01-31T06:08:55.369Z,9.60
2023-01-31T06:09:55.337Z,10.80
2023-01-31T06:10:55.350Z,12.10
2023-01-31T06:11:55.318Z,12.20
2023-01-31T06:12:55.328Z,12.70
2023-01-31T06:13:55.298Z,12.80
2023-01-31T06:14:55.291Z,12.90
2023-01-31T06:15:55.319Z,11.80
2023-01-31T06:16:55.269Z,12.40
2023-01-31T06:17:55.264Z,14.00
2023-01-31T06:18:55.258Z,14.10
2023-01-31T06:19:55.241Z,14.00
2023-01-31T06:20:55.260Z,15.20
2023-01-31T06:21:55.219Z,13.10
2023-01-31T06:22:55.227Z,11.10
2023-01-31T06:23:55.200Z,9.60
2023-01-31T06:24:55.236Z,10.60
2023-01-31T06:25:55.194Z,9.70
2023-01-31T06:26:55.172Z,9.50
2023-01-31T06:27:55.153Z,8.80
2023-01-31T06:28:55.162Z,8.60
2023-01-31T06:29:55.133Z,8.70
2023-01-31T06:30:55.249Z,8.70
2023-01-31T06:31:55.121Z,8.30
2023-01-31T06:32:55.125Z,7.70
2023-01-31T06:33:55.104Z,8.00
2023-01-31T06:34:55.103Z,8.40
2023-01-31T06:35:55.096Z,8.00
2023-01-31T06:36:55.077Z,9.00
2023-01-31T06:37:55.064Z,8.90
2023-01-31T06:38:55.739Z,8.50
2023-01-31T06:39:55.576Z,8.10
2023-01-31T06:40:55.455Z,8.40
2023-01-31T06:41:55.574Z,8.60
2023-01-31T06:42:55.349Z,7.70
2023-01-31T06:43:55.302Z,7.70
2023-01-31T06:44:55.037Z,8.20
2023-01-31T06:45:55.036Z,8.40
2023-01-31T06:46:54.954Z,8.00
2023-01-31T06:47:54.958Z,8.90
2023-01-31T06:48:54.964Z,9.00
2023-01-31T06:49:54.960Z,8.80
2023-01-31T06:50:54.961Z,8.40
2023-01-31T06:51:55.416Z,9.20
2023-01-31T06:52:54.923Z,8.90
2023-01-31T06:53:55.189Z,8.80
2023-01-31T06:54:55.174Z,9.10
2023-01-31T06:55:55.337Z,9.30
2023-01-31T06:56:55.011Z,8.00
2023-01-31T06:57:54.956Z,9.20
2023-01-31T06:58:54.861Z,9.30
2023-01-31T06:59:54.841Z,9.70
2023-01-31T07:00:54.882Z,9.20
2023-01-31T07:01:54.912Z,9.90
2023-01-31T07:02:54.813Z,10.60
2023-01-31T07:03:54.753Z,10.50
2023-01-31T07:04:54.765Z,10.00
2023-01-31T07:05:54.731Z,10.90
2023-01-31T07:06:54.738Z,10.90
2023-01-31T07:07:54.702Z,11.00
2023-01-31T07:08:54.704Z,11.10
2023-01-31T07:09:54.688Z,10.60
2023-01-31T07:10:54.699Z,10.00
2023-01-31T07:11:54.676Z,10.40
2023-01-31T07:12:54.655Z,10.90
2023-01-31T07:13:54.637Z,10.60
2023-01-31T07:14:54.653Z,9.90
2023-01-31T07:15:54.699Z,11.80
2023-01-31T07:16:54.641Z,12.10
2023-01-31T07:17:54.605Z,13.60
2023-01-31T07:18:54.602Z,13.70
2023-01-31T07:19:54.577Z,12.60
2023-01-31T07:20:54.575Z,10.70
2023-01-31T07:21:54.581Z,10.80
2023-01-31T07:22:56.582Z,10.90
2023-01-31T07:23:54.554Z,11.20
2023-01-31T07:24:54.531Z,12.30
2023-01-31T07:25:54.527Z,11.50
2023-01-31T07:26:54.620Z,10.50
2023-01-31T07:27:54.509Z,10.60
2023-01-31T07:28:54.494Z,11.10
2023-01-31T07:29:54.514Z,10.60
2023-01-31T07:30:54.480Z,10.60
2023-01-31T07:31:54.490Z,11.80
2023-01-31T07:32:54.459Z,11.00
2023-01-31T07:33:54.438Z,10.70
2023-01-31T07:34:54.432Z,11.30
2023-01-31T07:35:54.425Z,10.80
2023-01-31T07:36:54.436Z,11.10
2023-01-31T07:37:54.407Z,12.90
2023-01-31T07:38:54.392Z,11.00
2023-01-31T07:39:54.380Z,11.20
2023-01-31T07:40:54.375Z,11.60
2023-01-31T07:41:54.395Z,11.00
2023-01-31T07:42:54.354Z,10.90
2023-01-31T07:43:54.334Z,11.30
2023-01-31T07:44:54.346Z,11.50
2023-01-31T07:45:54.321Z,10.70
2023-01-31T07:46:54.325Z,9.70
2023-01-31T07:47:54.315Z,11.20
2023-01-31T07:48:54.294Z,9.80
2023-01-31T07:49:54.275Z,11.00
2023-01-31T07:50:54.273Z,11.20
2023-01-31T07:51:54.276Z,10.10
2023-01-31T07:52:54.264Z,10.60
2023-01-31T07:53:54.240Z,11.70
2023-01-31T07:54:54.234Z,10.90
2023-01-31T07:55:54.218Z,11.00
2023-01-31T07:56:54.228Z,11.10
2023-01-31T07:57:54.198Z,12.00
2023-01-31T07:58:54.191Z,11.90
2023-01-31T07:59:54.186Z,11.20
2023-01-31T08:00:54.215Z,12.90
2023-01-31T08:01:54.170Z,12.50
2023-01-31T08:02:54.151Z,12.10
2023-01-31T08:03:54.142Z,12.50
2023-01-31T08:04:54.154Z,12.10
2023-01-31T08:05:54.118Z,11.60
2023-01-31T08:06:54.129Z,11.80
2023-01-31T08:07:54.100Z,12.10
2023-01-31T08:08:54.093Z,12.00
2023-01-31T08:09:54.086Z,11.00
2023-01-31T08:10:54.069Z,11.40
2023-01-31T08:11:54.093Z,11.70
2023-01-31T08:12:54.053Z,12.00
2023-01-31T08:13:54.044Z,11.50
2023-01-31T08:14:54.050Z,11.50
2023-01-31T08:15:54.022Z,11.10
2023-01-31T08:16:54.056Z,10.90
2023-01-31T08:17:53.994Z,12.20
2023-01-31T08:18:53.996Z,12.10
2023-01-31T08:19:53.987Z,11.10
2023-01-31T08:20:53.964Z,12.10
2023-01-31T08:21:53.974Z,12.10
2023-01-31T08:22:53.950Z,10.90
2023-01-31T08:23:53.935Z,12.20
2023-01-31T08:24:53.938Z,11.80
2023-01-31T08:25:53.919Z,10.30
2023-01-31T08:26:54.073Z,11.40
2023-01-31T08:27:53.906Z,11.80
2023-01-31T08:28:53.902Z,12.90
2023-01-31T08:29:53.877Z,12.90
2023-01-31T08:31:07.684Z,12.00
2023-01-31T08:31:54.994Z,12.50
2023-01-31T08:32:53.858Z,11.80
2023-01-31T08:33:53.844Z,11.60
2023-01-31T08:34:53.827Z,13.00
2023-01-31T08:35:53.826Z,12.80
2023-01-31T08:36:53.865Z,12.50
2023-01-31T08:38:00.926Z,13.30
2023-01-31T08:38:54.846Z,12.80
2023-01-31T08:39:53.780Z,12.40
2023-01-31T08:40:53.770Z,11.80
2023-01-31T08:41:53.787Z,12.10
2023-01-31T08:42:53.751Z,12.80
2023-01-31T08:43:57.530Z,12.40
2023-01-31T08:44:53.734Z,13.20
2023-01-31T08:45:53.720Z,12.30
2023-01-31T08:46:53.795Z,11.70
2023-01-31T08:47:53.705Z,12.20
2023-01-31T08:48:53.717Z,12.40
2023-01-31T08:49:53.705Z,12.40
2023-01-31T08:50:53.666Z,12.30
2023-01-31T08:51:53.674Z,13.80
2023-01-31T08:52:53.666Z,13.30
2023-01-31T08:53:53.648Z,14.40
2023-01-31T08:54:53.628Z,15.30
2023-01-31T08:55:53.613Z,16.10
2023-01-31T08:56:53.623Z,15.10
2023-01-31T08:57:59.708Z,15.80
2023-01-31T08:58:54.591Z,14.00
2023-01-31T08:59:53.579Z,12.80
2023-01-31T09:00:53.565Z,13.60
2023-01-31T09:01:53.685Z,14.50
2023-01-31T09:02:53.632Z,13.70
2023-01-31T09:03:53.536Z,13.90
2023-01-31T09:04:53.523Z,13.50
2023-01-31T09:05:53.535Z,13.90
2023-01-31T09:06:53.525Z,14.80
2023-01-31T09:07:53.502Z,12.80
2023-01-31T09:08:53.486Z,13.10
2023-01-31T09:09:53.488Z,13.50
2023-01-31T09:10:53.459Z,12.90
2023-01-31T09:11:53.491Z,14.10
2023-01-31T09:12:53.456Z,14.60
2023-01-31T09:13:53.446Z,13.90
2023-01-31T09:14:53.418Z,14.30
2023-01-31T09:15:53.440Z,13.90
2023-01-31T09:16:53.490Z,13.90
2023-01-31T09:17:53.396Z,13.60
2023-01-31T09:18:53.399Z,13.70
2023-01-31T09:19:53.380Z,12.70
2023-01-31T09:20:53.361Z,13.60
2023-01-31T09:21:53.382Z,14.00
2023-01-31T09:22:53.340Z,13.70
2023-01-31T09:23:53.342Z,12.70
2023-01-31T09:24:53.324Z,12.90
2023-01-31T09:25:53.316Z,13.70
2023-01-31T09:26:53.385Z,13.20
2023-01-31T09:27:53.294Z,12.40
2023-01-31T09:28:53.296Z,13.00
2023-01-31T09:29:53.282Z,12.50
2023-01-31T09:30:53.369Z,13.30
2023-01-31T09:31:53.288Z,12.80
2023-01-31T09:32:53.241Z,13.10
2023-01-31T09:33:53.244Z,14.10
2023-01-31T09:34:53.235Z,13.10
2023-01-31T09:35:53.217Z,12.20
2023-01-31T09:36:53.215Z,13.20
2023-01-31T09:37:53.194Z,13.60
2023-01-31T09:38:53.186Z,13.80
2023-01-31T09:39:53.178Z,13.00
2023-01-31T09:40:53.167Z,13.70
2023-01-31T09:41:53.167Z,12.80
2023-01-31T09:42:53.146Z,13.10
2023-01-31T09:43:53.137Z,13.50
2023-01-31T09:44:53.118Z,13.90
2023-01-31T09:45:53.118Z,13.40
2023-01-31T09:46:53.150Z,13.90
2023-01-31T09:47:53.087Z,13.40
2023-01-31T09:48:53.071Z,13.50
2023-01-31T09:49:53.087Z,13.00
2023-01-31T09:50:53.059Z,13.30
2023-01-31T09:51:53.080Z,13.40
2023-01-31T09:52:53.062Z,14.90
2023-01-31T09:53:53.030Z,14.30
2023-01-31T09:54:53.018Z,15.80
2023-01-31T09:55:53.012Z,15.30
2023-01-31T09:56:53.000Z,14.40
2023-01-31T09:57:53.011Z,15.10
2023-01-31T09:58:52.972Z,14.60
2023-01-31T09:59:52.978Z,14.30
2023-01-31T10:00:52.996Z,15.50
2023-01-31T10:01:52.976Z,16.50
2023-01-31T10:02:52.960Z,16.10
2023-01-31T10:03:52.959Z,15.70
2023-01-31T10:04:52.923Z,14.80
2023-01-31T10:05:52.918Z,14.10
2023-01-31T10:06:52.893Z,15.00
2023-01-31T10:07:52.907Z,15.20
2023-01-31T10:08:52.883Z,16.60
2023-01-31T10:09:52.864Z,13.90
2023-01-31T10:10:52.854Z,15.70
2023-01-31T10:11:52.849Z,14.00
2023-01-31T10:12:52.855Z,16.00
2023-01-31T10:13:52.824Z,14.60
2023-01-31T10:14:52.821Z,14.40
2023-01-31T10:15:52.806Z,13.80
2023-01-31T10:16:52.798Z,14.00
2023-01-31T10:17:52.917Z,13.70
2023-01-31T10:18:52.787Z,14.40
2023-01-31T10:19:52.775Z,15.10
2023-01-31T10:20:52.759Z,13.70
2023-01-31T10:21:52.759Z,13.90
2023-01-31T10:22:52.768Z,13.10
2023-01-31T10:23:52.729Z,13.10
2023-01-31T10:24:52.718Z,13.50
2023-01-31T10:25:52.709Z,14.10
2023-01-31T10:26:52.762Z,13.00
2023-01-31T10:27:52.707Z,13.50
2023-01-31T10:28:52.683Z,13.40
2023-01-31T10:29:52.673Z,13.30
2023-01-31T10:30:52.717Z,13.40
2023-01-31T10:31:52.715Z,14.00
2023-01-31T10:32:52.650Z,13.00
2023-01-31T10:33:52.635Z,13.90
2023-01-31T10:34:52.613Z,13.50
2023-01-31T10:35:52.627Z,13.90
2023-01-31T10:36:52.595Z,13.30
2023-01-31T10:37:52.610Z,12.90
2023-01-31T10:38:52.575Z,13.40
2023-01-31T10:39:52.571Z,13.60
2023-01-31T10:40:52.555Z,13.60
2023-01-31T10:41:52.544Z,13.00
2023-01-31T10:42:52.555Z,12.50
2023-01-31T10:43:52.535Z,13.30
2023-01-31T10:44:52.527Z,13.00
2023-01-31T10:45:52.521Z,12.00
2023-01-31T10:46:52.495Z,12.60
2023-01-31T10:47:52.564Z,12.30
2023-01-31T10:48:52.478Z,12.80
2023-01-31T10:49:52.467Z,12.90
2023-01-31T10:50:52.462Z,13.20
2023-01-31T10:51:52.448Z,13.00
2023-01-31T10:52:52.469Z,12.50
2023-01-31T10:53:52.428Z,13.00
2023-01-31T10:54:52.419Z,13.20
2023-01-31T10:55:52.407Z,13.40
2023-01-31T10:56:52.401Z,12.20
2023-01-31T10:57:52.401Z,13.30
2023-01-31T10:58:52.376Z,13.00
2023-01-31T10:59:52.372Z,13.20
2023-01-31T11:00:52.405Z,13.30
2023-01-31T11:01:52.457Z,14.10
2023-01-31T11:02:52.367Z,12.80
2023-01-31T11:03:52.337Z,12.80
2023-01-31T11:04:52.317Z,13.80
2023-01-31T11:05:52.324Z,13.70
2023-01-31T11:06:52.316Z,13.60
2023-01-31T11:07:52.304Z,14.40
2023-01-31T11:08:52.271Z,13.70
2023-01-31T11:09:52.263Z,14.80
2023-01-31T11:10:52.257Z,14.50
2023-01-31T11:11:52.253Z,12.80
2023-01-31T11:12:52.259Z,13.70
2023-01-31T11:13:52.226Z,14.40
2023-01-31T11:14:53.972Z,14.00
2023-01-31T11:15:52.210Z,13.60
2023-01-31T11:16:52.254Z,13.10
2023-01-31T11:17:52.205Z,13.50
2023-01-31T11:18:52.174Z,13.90
2023-01-31T11:19:52.173Z,14.10
2023-01-31T11:20:52.155Z,14.10
2023-01-31T11:21:52.148Z,13.50
2023-01-31T11:22:52.255Z,14.80
2023-01-31T11:23:52.128Z,13.80
2023-01-31T11:24:52.119Z,14.40
2023-01-31T11:25:52.114Z,14.10
2023-01-31T11:26:52.095Z,14.40
2023-01-31T11:27:52.099Z,13.10
2023-01-31T11:28:52.109Z,14.40
2023-01-31T11:29:52.069Z,13.90
2023-01-31T11:30:52.140Z,14.60
2023-01-31T11:31:52.091Z,13.60
2023-01-31T11:32:52.053Z,13.90
2023-01-31T11:33:52.020Z,13.80
2023-01-31T11:34:52.013Z,14.30
2023-01-31T11:35:52.007Z,13.80
2023-01-31T11:36:52.006Z,13.90
2023-01-31T11:37:53.769Z,13.60
2023-01-31T11:38:51.972Z,13.80
2023-01-31T11:39:51.973Z,13.70
2023-01-31T11:40:51.960Z,13.20
2023-01-31T11:41:51.943Z,13.00
2023-01-31T11:42:51.949Z,12.60
2023-01-31T11:43:51.922Z,13.10
2023-01-31T11:44:51.912Z,12.70
2023-01-31T11:45:51.920Z,12.60
2023-01-31T11:46:51.895Z,12.20
2023-01-31T11:47:51.910Z,12.00
2023-01-31T11:48:51.885Z,12.40
2023-01-31T11:49:51.868Z,12.70
2023-01-31T11:50:51.864Z,11.60
2023-01-31T11:51:51.849Z,12.30
2023-01-31T11:52:51.855Z,12.70
2023-01-31T11:53:51.824Z,12.50
2023-01-31T11:54:51.822Z,13.30
2023-01-31T11:55:51.805Z,12.60
2023-01-31T11:56:52.817Z,13.50
2023-01-31T11:57:51.797Z,11.80
2023-01-31T11:58:51.778Z,12.50
2023-01-31T11:59:51.773Z,12.60
2023-01-31T12:00:51.748Z,11.90
2023-01-31T12:01:51.859Z,12.40
2023-01-31T12:02:51.752Z,12.20
2023-01-31T12:04:01.903Z,12.40
2023-01-31T12:04:52.714Z,11.30
2023-01-31T12:05:51.708Z,13.30
2023-01-31T12:06:51.680Z,12.00
2023-01-31T12:07:51.715Z,12.60
2023-01-31T12:08:51.668Z,13.10
2023-01-31T12:09:51.665Z,12.10
2023-01-31T12:10:51.671Z,11.10
2023-01-31T12:11:51.644Z,11.10
2023-01-31T12:12:51.648Z,12.10
2023-01-31T12:13:51.632Z,12.50
2023-01-31T12:14:51.613Z,10.90
2023-01-31T12:15:51.605Z,11.30
2023-01-31T12:16:51.768Z,10.90
2023-01-31T12:17:51.604Z,10.80
2023-01-31T12:18:51.559Z,11.70
2023-01-31T12:19:51.562Z,10.50
2023-01-31T12:20:51.554Z,10.30
2023-01-31T12:21:51.542Z,11.10
2023-01-31T12:22:51.575Z,9.70
2023-01-31T12:23:51.963Z,9.70
2023-01-31T12:24:51.522Z,9.80
2023-01-31T12:25:51.516Z,9.20
2023-01-31T12:26:51.534Z,9.90
2023-01-31T12:27:51.516Z,9.30
2023-01-31T12:28:51.500Z,8.60
2023-01-31T12:29:51.465Z,8.70
2023-01-31T12:30:51.518Z,8.40
2023-01-31T12:31:51.478Z,7.50
2023-01-31T12:32:51.461Z,8.90
2023-01-31T12:33:51.430Z,9.40
2023-01-31T12:35:01.323Z,10.40
2023-01-31T12:35:52.399Z,9.50
2023-01-31T12:36:51.413Z,9.40
2023-01-31T12:37:51.449Z,8.60
2023-01-31T12:38:51.454Z,9.90
2023-01-31T12:39:51.351Z,9.60
2023-01-31T12:40:51.349Z,10.00
2023-01-31T12:41:51.329Z,9.40
2023-01-31T12:42:51.349Z,11.10
2023-01-31T12:43:51.310Z,10.50
2023-01-31T12:44:51.311Z,9.50
2023-01-31T12:45:51.356Z,9.50
2023-01-31T12:47:08.472Z,10.50
2023-01-31T12:47:52.307Z,11.10
2023-01-31T12:48:51.285Z,10.00
2023-01-31T12:49:51.273Z,10.40
2023-01-31T12:50:51.251Z,10.70
2023-01-31T12:51:51.819Z,10.30
2023-01-31T12:52:51.254Z,9.20
2023-01-31T12:53:51.216Z,8.90
2023-01-31T12:54:51.210Z,8.40
2023-01-31T12:55:51.193Z,9.50
2023-01-31T12:56:51.196Z,8.90
2023-01-31T12:57:51.192Z,8.80
2023-01-31T12:58:51.303Z,8.90
2023-01-31T12:59:51.173Z,10.10
2023-01-31T13:00:51.165Z,9.90
2023-01-31T13:01:51.166Z,9.70
2023-01-31T13:02:51.242Z,9.00
2023-01-31T13:03:51.105Z,8.10
2023-01-31T13:04:51.108Z,8.30